Time;durP1;ratioP1;P1;durP2;ratioP2;P2;SDS_P1;SDS_P2;PMS_P1;PMS_P2;Temp;Humidity;BMP_temperature;BMP_pressure;BME280_temperature;BME280_humidity;BME280_pressure;Samples;Min_cycle;Max_cycle;Signal;HPM_P1;HPM_P2
2021/04/07 00:14:49;;;;;;;;;;;;;;;;;;5108118;27;20348;-60
2021/04/07 00:17:15;;;;;;;0.30;0.28;;;;;;;;;;5077548;28;20266;-61
2021/04/07 00:19:41;;;;;;;1.63;0.45;;;;;;;;;;5088494;28;20039;-60
2021/04/07 00:22:07;;;;;;;0.13;0.13;;;;;;;;;;5089223;28;20020;-60
2021/04/07 00:24:33;;;;;;;0.20;0.20;;;;;;;;;;5089189;28;20028;-61
2021/04/07 00:27:06;;;;;;;0.28;0.28;;;;;;;;;;5089094;28;20020;-60
2021/04/07 00:29:32;;;;;;;0.85;0.55;;;;;;;;;;5088707;28;20025;-61
2021/04/07 00:31:58;;;;;;;0.30;0.30;;;;;;;;;;5088605;28;20028;-60
2021/04/07 00:34:24;;;;;;;0.40;0.40;;;;;;;;;;5088024;28;20024;-61
2021/04/07 00:36:50;;;;;;;0.40;0.40;;;;;;;;;;5088209;28;20031;-61
2021/04/07 00:39:17;;;;;;;2.17;0.40;;;;;;;;;;5088520;28;20031;-60
2021/04/07 00:41:43;;;;;;;6.35;0.40;;;;;;;;;;5088395;28;20064;-60
2021/04/07 00:44:09;;;;;;;0.20;0.20;;;;;;;;;;5073963;28;20453;-59
2021/04/07 00:46:36;;;;;;;1.30;1.20;;;;;;;;;;5086566;28;20024;-61
2021/04/07 00:49:02;;;;;;;0.45;0.45;;;;;;;;;;5087715;28;20024;-60
2021/04/07 00:51:29;;;;;;;0.73;0.73;;;;;;;;;;5087747;28;20031;-60
2021/04/07 00:53:55;;;;;;;0.30;0.30;;;;;;;;;;5086743;28;20062;-61
2021/04/07 00:56:22;;;;;;;0.60;0.60;;;;;;;;;;5087619;28;20024;-61
2021/04/07 00:58:48;;;;;;;0.73;0.73;;;;;;;;;;5088509;28;20032;-60
2021/04/07 01:01:14;;;;;;;0.60;0.60;;;;;;;;;;5087886;28;20016;-60
2021/04/07 01:03:40;;;;;;;0.20;0.20;;;;;;;;;;5087453;28;20047;-61
2021/04/07 01:06:06;;;;;;;0.30;0.30;;;;;;;;;;5088077;28;20008;-61
2021/04/07 01:08:32;;;;;;;0.38;0.38;;;;;;;;;;5087323;28;20046;-61
2021/04/07 01:10:59;;;;;;;13.85;0.93;;;;;;;;;;5087832;28;20039;-60
2021/04/07 01:13:25;;;;;;;2.63;0.65;;;;;;;;;;5086864;28;20048;-60
2021/04/07 01:15:51;;;;;;;0.30;0.30;;;;;;;;;;5076820;28;20036;-60
2021/04/07 01:18:17;;;;;;;0.30;0.30;;;;;;;;;;5072049;28;20569;-61
2021/04/07 01:20:43;;;;;;;0.40;0.40;;;;;;;;;;5072183;28;20009;-60
2021/04/07 01:23:10;;;;;;;0.30;0.30;;;;;;;;;;5074033;28;20074;-60
2021/04/07 01:25:36;;;;;;;0.30;0.30;;;;;;;;;;5070425;28;20020;-60
2021/04/07 01:28:02;;;;;;;0.50;0.50;;;;;;;;;;5072066;28;20474;-61
2021/04/07 01:30:29;;;;;;;0.40;0.40;;;;;;;;;;5070621;28;20033;-60
2021/04/07 01:32:55;;;;;;;0.30;0.30;;;;;;;;;;5071598;28;20056;-60
2021/04/07 01:35:23;;;;;;;1.05;1.00;;;;;;;;;;5073543;28;20150;-61
2021/04/07 01:37:49;;;;;;;0.25;0.25;;;;;;;;;;5071020;28;20051;-60
2021/04/07 01:40:16;;;;;;;7.20;0.50;;;;;;;;;;5072002;28;20071;-60
2021/04/07 01:42:45;;;;;;;0.30;0.30;;;;;;;;;;5072055;28;20032;-61
2021/04/07 01:45:12;;;;;;;0.25;0.25;;;;;;;;;;5071976;28;20101;-61
2021/04/07 01:47:39;;;;;;;0.25;0.25;;;;;;;;;;5071787;28;20024;-60
2021/04/07 01:50:06;;;;;;;0.50;0.50;;;;;;;;;;5073765;28;20561;-60
2021/04/07 01:52:32;;;;;;;0.35;0.35;;;;;;;;;;5071594;28;20021;-60
2021/04/07 01:55:00;;;;;;;0.32;0.32;;;;;;;;;;5071732;28;20036;-60
2021/04/07 01:57:26;;;;;;;4.53;0.50;;;;;;;;;;5071775;28;20017;-60
2021/04/07 01:59:52;;;;;;;0.40;0.40;;;;;;;;;;5071782;28;20091;-60
2021/04/07 02:02:18;;;;;;;0.85;0.82;;;;;;;;;;5073406;28;20021;-60
2021/04/07 02:04:44;;;;;;;0.30;0.30;;;;;;;;;;5071801;28;20486;-61
2021/04/07 02:07:14;;;;;;;0.32;0.32;;;;;;;;;;5071363;28;20717;-60
2021/04/07 02:09:41;;;;;;;0.30;0.30;;;;;;;;;;5071173;28;20082;-61
2021/04/07 02:12:08;;;;;;;0.40;0.40;;;;;;;;;;5070142;28;20021;-60
2021/04/07 02:14:34;;;;;;;0.35;0.35;;;;;;;;;;5071373;28;20052;-62
2021/04/07 02:17:01;;;;;;;0.30;0.30;;;;;;;;;;5070736;28;20017;-62
2021/04/07 02:19:28;;;;;;;0.30;0.30;;;;;;;;;;5071302;28;20025;-61
2021/04/07 02:22:01;;;;;;;0.30;0.30;;;;;;;;;;5071278;28;20009;-60
2021/04/07 02:24:27;;;;;;;0.20;0.20;;;;;;;;;;5071046;28;20025;-60
2021/04/07 02:26:53;;;;;;;0.20;0.20;;;;;;;;;;5070238;28;20029;-60
2021/04/07 02:29:20;;;;;;;0.30;0.30;;;;;;;;;;5072490;28;20036;-61
2021/04/07 02:31:46;;;;;;;0.30;0.30;;;;;;;;;;5069916;28;20032;-61
2021/04/07 02:34:12;;;;;;;0.30;0.30;;;;;;;;;;5071063;28;20030;-60
2021/04/07 02:36:38;;;;;;;0.30;0.30;;;;;;;;;;5071049;28;20029;-60
2021/04/07 02:39:05;;;;;;;0.55;0.55;;;;;;;;;;5070909;28;20052;-60
2021/04/07 02:41:31;;;;;;;0.30;0.30;;;;;;;;;;5071808;28;20029;-60
2021/04/07 02:43:57;;;;;;;0.40;0.40;;;;;;;;;;5069914;28;20421;-60
2021/04/07 02:46:24;;;;;;;0.30;0.30;;;;;;;;;;5070580;28;20020;-63
2021/04/07 02:48:50;;;;;;;0.47;0.47;;;;;;;;;;5069215;28;20074;-60
2021/04/07 02:51:16;;;;;;;0.40;0.40;;;;;;;;;;5070739;28;20009;-60
2021/04/07 02:53:42;;;;;;;0.30;0.30;;;;;;;;;;5070495;28;20081;-60
2021/04/07 02:56:08;;;;;;;4.85;1.30;;;;;;;;;;5072332;28;20021;-60
2021/04/07 02:58:35;;;;;;;0.25;0.25;;;;;;;;;;5070169;28;20032;-61
2021/04/07 03:01:01;;;;;;;0.30;0.30;;;;;;;;;;5070442;28;20021;-60
2021/04/07 03:03:27;;;;;;;0.30;0.30;;;;;;;;;;5070191;28;20540;-61
2021/04/07 03:05:53;;;;;;;0.50;0.50;;;;;;;;;;5069189;28;20023;-60
2021/04/07 03:08:19;;;;;;;0.30;0.30;;;;;;;;;;5072004;28;20435;-62
2021/04/07 03:10:46;;;;;;;0.40;0.40;;;;;;;;;;5070186;28;20035;-61
2021/04/07 03:13:12;;;;;;;0.40;0.40;;;;;;;;;;5069724;28;20048;-62
2021/04/07 03:15:38;;;;;;;0.30;0.30;;;;;;;;;;5070152;28;20029;-60
2021/04/07 03:18:04;;;;;;;0.35;0.35;;;;;;;;;;5070092;28;20033;-60
2021/04/07 03:20:30;;;;;;;0.30;0.30;;;;;;;;;;5071115;28;20047;-60
2021/04/07 03:22:56;;;;;;;0.40;0.40;;;;;;;;;;5069531;28;20522;-61
2021/04/07 03:25:22;;;;;;;0.30;0.30;;;;;;;;;;5070027;28;20016;-60
2021/04/07 03:27:48;;;;;;;0.32;0.32;;;;;;;;;;5068090;28;20040;-60
2021/04/07 03:30:15;;;;;;;0.40;0.40;;;;;;;;;;5068053;28;20020;-61
2021/04/07 03:32:41;;;;;;;0.30;0.30;;;;;;;;;;5069401;28;20036;-61
2021/04/07 03:35:07;;;;;;;0.43;0.43;;;;;;;;;;5070793;28;20102;-59
2021/04/07 03:37:33;;;;;;;0.40;0.40;;;;;;;;;;5068838;28;20068;-60
2021/04/07 03:39:59;;;;;;;0.30;0.30;;;;;;;;;;5068850;28;20359;-59
2021/04/07 03:42:25;;;;;;;0.40;0.40;;;;;;;;;;5068573;28;20119;-59
2021/04/07 03:44:52;;;;;;;0.40;0.40;;;;;;;;;;5069008;28;20021;-59
2021/04/07 03:47:18;;;;;;;0.38;0.38;;;;;;;;;;5070678;28;20516;-60
2021/04/07 03:49:44;;;;;;;0.40;0.40;;;;;;;;;;5063287;28;20041;-61
2021/04/07 03:52:10;;;;;;;0.40;0.40;;;;;;;;;;5068865;28;20415;-59
2021/04/07 03:54:36;;;;;;;0.40;0.40;;;;;;;;;;5068864;28;20119;-60
2021/04/07 03:57:02;;;;;;;0.40;0.40;;;;;;;;;;5068553;28;20070;-60
2021/04/07 03:59:28;;;;;;;0.40;0.40;;;;;;;;;;5069993;28;20024;-60
2021/04/07 04:01:54;;;;;;;0.40;0.40;;;;;;;;;;5069895;28;20024;-60
2021/04/07 04:04:21;;;;;;;0.43;0.43;;;;;;;;;;5068774;28;20044;-59
2021/04/07 04:06:52;;;;;;;0.40;0.40;;;;;;;;;;5067298;28;20035;-62
2021/04/07 04:09:18;;;;;;;0.40;0.40;;;;;;;;;;5068425;28;20029;-61
2021/04/07 04:11:44;;;;;;;0.32;0.32;;;;;;;;;;5067255;28;20521;-64
2021/04/07 04:14:10;;;;;;;0.30;0.30;;;;;;;;;;5070436;28;20045;-62
2021/04/07 04:16:36;;;;;;;0.30;0.30;;;;;;;;;;5068740;28;20115;-62
2021/04/07 04:19:03;;;;;;;0.35;0.35;;;;;;;;;;5068536;28;20036;-61
2021/04/07 04:21:29;;;;;;;0.30;0.30;;;;;;;;;;5068538;28;20025;-61
2021/04/07 04:23:55;;;;;;;0.40;0.40;;;;;;;;;;5068480;28;20043;-61
2021/04/07 04:26:21;;;;;;;0.40;0.40;;;;;;;;;;5069786;28;20442;-60
2021/04/07 04:28:47;;;;;;;0.35;0.35;;;;;;;;;;5069055;28;20060;-60
2021/04/07 04:31:13;;;;;;;0.32;0.32;;;;;;;;;;5068383;28;20016;-60
2021/04/07 04:33:39;;;;;;;0.32;0.32;;;;;;;;;;5068152;28;20036;-60
2021/04/07 04:36:05;;;;;;;0.20;0.20;;;;;;;;;;5068552;28;20425;-61
2021/04/07 04:38:31;;;;;;;0.40;0.40;;;;;;;;;;5069622;28;20048;-60
2021/04/07 04:40:58;;;;;;;0.40;0.40;;;;;;;;;;5067608;28;20603;-60
2021/04/07 04:43:24;;;;;;;0.45;0.45;;;;;;;;;;5068299;28;20390;-61
2021/04/07 04:45:50;;;;;;;0.30;0.30;;;;;;;;;;5066699;28;20016;-60
2021/04/07 04:48:16;;;;;;;0.30;0.30;;;;;;;;;;5068417;28;20035;-60
2021/04/07 04:50:42;;;;;;;0.30;0.30;;;;;;;;;;5071462;28;20107;-60
2021/04/07 04:53:08;;;;;;;0.30;0.30;;;;;;;;;;5074607;28;20142;-60
2021/04/07 04:55:35;;;;;;;0.38;0.38;;;;;;;;;;5071806;28;20029;-60
2021/04/07 04:58:01;;;;;;;0.40;0.40;;;;;;;;;;5072120;28;20028;-61
2021/04/07 05:00:27;;;;;;;0.32;0.32;;;;;;;;;;5072062;28;20082;-61
2021/04/07 05:02:53;;;;;;;0.40;0.40;;;;;;;;;;5071366;28;20020;-60
2021/04/07 05:05:19;;;;;;;0.30;0.30;;;;;;;;;;5070314;28;20025;-60
2021/04/07 05:07:45;;;;;;;0.30;0.30;;;;;;;;;;5069511;28;20048;-59
2021/04/07 05:10:12;;;;;;;0.40;0.40;;;;;;;;;;5065035;28;20021;-60
2021/04/07 05:12:38;;;;;;;0.40;0.40;;;;;;;;;;5070576;28;20115;-60
2021/04/07 05:15:04;;;;;;;0.30;0.30;;;;;;;;;;5056798;28;20055;-60
2021/04/07 05:17:30;;;;;;;0.40;0.40;;;;;;;;;;5072875;28;20024;-62
2021/04/07 05:19:56;;;;;;;0.32;0.32;;;;;;;;;;5057371;28;20364;-61
2021/04/07 05:22:23;;;;;;;0.40;0.40;;;;;;;;;;5063929;28;20483;-61
2021/04/07 05:24:49;;;;;;;0.30;0.30;;;;;;;;;;5065482;28;20421;-60
2021/04/07 05:27:15;;;;;;;0.40;0.40;;;;;;;;;;5065997;28;20029;-60
2021/04/07 05:29:41;;;;;;;0.47;0.47;;;;;;;;;;5065357;28;20064;-60
2021/04/07 05:32:08;;;;;;;0.40;0.40;;;;;;;;;;5069973;28;20036;-60
2021/04/07 05:34:34;;;;;;;0.40;0.40;;;;;;;;;;5070077;28;20394;-60
2021/04/07 05:37:00;;;;;;;0.40;0.40;;;;;;;;;;5070185;28;20028;-60
2021/04/07 05:39:26;;;;;;;0.30;0.30;;;;;;;;;;5070225;28;20016;-60
2021/04/07 05:41:53;;;;;;;0.40;0.40;;;;;;;;;;5055046;28;20029;-60
2021/04/07 05:44:19;;;;;;;0.30;0.30;;;;;;;;;;5072290;28;20386;-60
2021/04/07 05:46:45;;;;;;;0.40;0.40;;;;;;;;;;5069637;28;20032;-61
2021/04/07 05:49:11;;;;;;;0.30;0.30;;;;;;;;;;5059969;28;20047;-60
2021/04/07 05:51:37;;;;;;;0.30;0.30;;;;;;;;;;5067115;28;20028;-60
2021/04/07 05:54:03;;;;;;;0.40;0.40;;;;;;;;;;5069269;28;20017;-62
2021/04/07 05:56:29;;;;;;;0.38;0.38;;;;;;;;;;5072422;28;20051;-61
2021/04/07 05:58:55;;;;;;;0.30;0.30;;;;;;;;;;5068641;28;20090;-60
2021/04/07 06:01:21;;;;;;;0.40;0.40;;;;;;;;;;5072460;28;20028;-60
2021/04/07 06:03:48;;;;;;;0.40;0.40;;;;;;;;;;5071851;28;20037;-60
2021/04/07 06:06:14;;;;;;;0.40;0.40;;;;;;;;;;5072122;28;20389;-60
2021/04/07 06:08:40;;;;;;;0.40;0.40;;;;;;;;;;5071120;28;20025;-60
2021/04/07 06:11:06;;;;;;;0.32;0.32;;;;;;;;;;5072923;28;20060;-60
2021/04/07 06:13:32;;;;;;;0.38;0.38;;;;;;;;;;5060679;28;20445;-60
2021/04/07 06:15:58;;;;;;;0.28;0.28;;;;;;;;;;5065181;28;20025;-61
2021/04/07 06:18:25;;;;;;;0.40;0.40;;;;;;;;;;5069787;28;20055;-63
2021/04/07 06:20:51;;;;;;;0.40;0.40;;;;;;;;;;5066327;28;20111;-60
2021/04/07 06:23:20;;;;;;;0.30;0.30;;;;;;;;;;5068363;28;20066;-60
2021/04/07 06:25:46;;;;;;;0.40;0.40;;;;;;;;;;5067647;28;20043;-60
2021/04/07 06:28:13;;;;;;;0.30;0.30;;;;;;;;;;5070982;28;20024;-60
2021/04/07 06:30:46;;;;;;;0.30;0.30;;;;;;;;;;5071195;28;20036;-60
2021/04/07 06:33:12;;;;;;;0.32;0.32;;;;;;;;;;5070893;28;20085;-60
2021/04/07 06:35:38;;;;;;;0.38;0.38;;;;;;;;;;5067729;28;20032;-60
2021/04/07 06:38:05;;;;;;;0.40;0.40;;;;;;;;;;5066470;28;20394;-59
2021/04/07 06:40:31;;;;;;;0.30;0.30;;;;;;;;;;5071375;28;20041;-60
2021/04/07 06:42:59;;;;;;;0.40;0.40;;;;;;;;;;5070864;28;20036;-60
2021/04/07 06:45:26;;;;;;;0.40;0.40;;;;;;;;;;5069845;28;20066;-60
2021/04/07 06:47:53;;;;;;;0.30;0.30;;;;;;;;;;5070963;28;20833;-60
2021/04/07 06:50:19;;;;;;;0.30;0.30;;;;;;;;;;5065711;28;20116;-60
2021/04/07 06:52:45;;;;;;;0.40;0.40;;;;;;;;;;5068078;28;20111;-60
2021/04/07 06:55:12;;;;;;;0.40;0.40;;;;;;;;;;5068331;28;20158;-60
2021/04/07 06:57:38;;;;;;;0.30;0.30;;;;;;;;;;5067832;28;20482;-59
2021/04/07 07:00:06;;;;;;;0.40;0.40;;;;;;;;;;5068016;28;20048;-60
2021/04/07 07:02:34;;;;;;;0.40;0.40;;;;;;;;;;5065973;28;20020;-60
2021/04/07 07:05:01;;;;;;;0.40;0.40;;;;;;;;;;5064715;28;20444;-59
2021/04/07 07:07:28;;;;;;;0.35;0.35;;;;;;;;;;5066418;28;20090;-59
2021/04/07 07:09:55;;;;;;;0.35;0.35;;;;;;;;;;5065681;28;20025;-60
2021/04/07 07:12:21;;;;;;;0.30;0.30;;;;;;;;;;5066140;28;20039;-60
2021/04/07 07:14:48;;;;;;;0.35;0.35;;;;;;;;;;5066450;28;20121;-61
2021/04/07 07:17:14;;;;;;;0.32;0.32;;;;;;;;;;5067313;28;20070;-60
2021/04/07 07:19:48;;;;;;;0.30;0.30;;;;;;;;;;5059877;28;20033;-62
2021/04/07 07:22:20;;;;;;;0.30;0.30;;;;;;;;;;5067860;28;20071;-60
2021/04/07 07:24:51;;;;;;;0.30;0.30;;;;;;;;;;5068019;28;20143;-60
2021/04/07 07:27:17;;;;;;;0.30;0.30;;;;;;;;;;5068267;28;20063;-60
2021/04/07 07:29:53;;;;;;;0.30;0.30;;;;;;;;;;5069272;28;20128;-60
2021/04/07 07:32:19;;;;;;;0.22;0.22;;;;;;;;;;5066189;28;20064;-60
2021/04/07 07:34:45;;;;;;;0.30;0.30;;;;;;;;;;5069478;28;20028;-62
2021/04/07 07:37:23;;;;;;;0.30;0.30;;;;;;;;;;5062810;28;20474;-60
2021/04/07 07:39:49;;;;;;;0.25;0.25;;;;;;;;;;5059310;28;20025;-60
2021/04/07 07:42:15;;;;;;;0.20;0.20;;;;;;;;;;5063445;28;20029;-60
2021/04/07 07:44:41;;;;;;;0.30;0.30;;;;;;;;;;5068782;28;20048;-60
2021/04/07 07:47:24;;;;;;;0.30;0.30;;;;;;;;;;5069519;28;20031;-60
2021/04/07 07:50:11;;;;;;;0.25;0.25;;;;;;;;;;5069458;28;20077;-61
2021/04/07 07:52:38;;;;;;;0.20;0.20;;;;;;;;;;5067150;28;20120;-61
2021/04/07 07:55:14;;;;;;;0.30;0.30;;;;;;;;;;5067482;28;20020;-60
2021/04/07 07:57:40;;;;;;;;;;;;;;;;;;5063569;28;20083;-60
2021/04/07 08:00:09;;;;;;;0.20;0.20;;;;;;;;;;5069400;28;20362;-60
2021/04/07 08:02:38;;;;;;;0.20;0.20;;;;;;;;;;5067192;28;20116;-60
2021/04/07 08:05:08;;;;;;;0.20;0.20;;;;;;;;;;5068516;28;20489;-61
2021/04/07 08:07:35;;;;;;;0.20;0.20;;;;;;;;;;5065914;28;20024;-63
2021/04/07 08:10:01;;;;;;;0.20;0.20;;;;;;;;;;5067410;28;20540;-61
2021/04/07 08:12:29;;;;;;;0.20;0.20;;;;;;;;;;5065888;28;20033;-61
2021/04/07 08:14:56;;;;;;;0.20;0.20;;;;;;;;;;5065307;28;20082;-61
2021/04/07 08:17:22;;;;;;;0.20;0.20;;;;;;;;;;5067155;28;20025;-61
2021/04/07 08:19:49;;;;;;;0.13;0.13;;;;;;;;;;5065955;28;20041;-60
2021/04/07 08:22:15;;;;;;;0.20;0.20;;;;;;;;;;5066744;28;20060;-60
2021/04/07 08:24:42;;;;;;;0.10;0.10;;;;;;;;;;5069186;28;20533;-60
2021/04/07 08:27:08;;;;;;;0.10;0.10;;;;;;;;;;5069032;28;20020;-59
2021/04/07 08:29:37;;;;;;;0.10;0.10;;;;;;;;;;5063393;28;20491;-59
2021/04/07 08:32:04;;;;;;;0.10;0.10;;;;;;;;;;5072269;28;20107;-60
2021/04/07 08:34:30;;;;;;;0.20;0.20;;;;;;;;;;5061611;28;20798;-61
2021/04/07 08:36:56;;;;;;;0.20;0.20;;;;;;;;;;5064826;28;20394;-58
2021/04/07 08:39:24;;;;;;;0.20;0.20;;;;;;;;;;5062836;28;20502;-61
2021/04/07 08:41:51;;;;;;;0.20;0.20;;;;;;;;;;5054771;28;20044;-58
2021/04/07 08:44:18;;;;;;;0.20;0.20;;;;;;;;;;5067765;28;20043;-58
2021/04/07 08:46:48;;;;;;;0.30;0.30;;;;;;;;;;5069798;28;20017;-59
2021/04/07 08:49:32;;;;;;;0.20;0.20;;;;;;;;;;5063824;28;20120;-58
2021/04/07 08:51:59;;;;;;;0.13;0.13;;;;;;;;;;5058799;28;20032;-59
2021/04/07 08:54:25;;;;;;;0.20;0.20;;;;;;;;;;5061221;28;20078;-59
2021/04/07 08:56:57;;;;;;;0.13;0.13;;;;;;;;;;5057515;28;20102;-60
2021/04/07 08:59:26;;;;;;;0.10;0.10;;;;;;;;;;5064701;28;21063;-59
2021/04/07 09:02:06;;;;;;;0.13;0.13;;;;;;;;;;5066063;28;20020;-59
2021/04/07 09:04:35;;;;;;;0.10;0.10;;;;;;;;;;5066198;28;20119;-61
2021/04/07 09:07:02;;;;;;;0.10;0.10;;;;;;;;;;5069523;28;20032;-60
2021/04/07 09:09:35;;;;;;;0.20;0.20;;;;;;;;;;5061188;28;20550;-60
2021/04/07 09:12:01;;;;;;;0.10;0.10;;;;;;;;;;5069086;28;20028;-60
2021/04/07 09:14:29;;;;;;;0.20;0.20;;;;;;;;;;5070932;28;20070;-59
2021/04/07 09:17:05;;;;;;;0.20;0.20;;;;;;;;;;5068501;28;20033;-60
2021/04/07 09:19:33;;;;;;;0.17;0.17;;;;;;;;;;5068493;28;20120;-60
2021/04/07 09:22:07;;;;;;;0.20;0.20;;;;;;;;;;5059400;28;20028;-60
2021/04/07 09:24:39;;;;;;;0.17;0.17;;;;;;;;;;5061773;28;20052;-60
2021/04/07 09:27:05;;;;;;;0.10;0.10;;;;;;;;;;5058964;28;20036;-61
2021/04/07 09:29:31;;;;;;;0.10;0.10;;;;;;;;;;5066454;28;20070;-60
2021/04/07 09:31:57;;;;;;;0.22;0.22;;;;;;;;;;5064041;28;20176;-60
2021/04/07 09:34:24;;;;;;;0.10;0.10;;;;;;;;;;5067043;28;20032;-60
2021/04/07 09:36:50;;;;;;;0.10;0.10;;;;;;;;;;5062047;28;20036;-59
2021/04/07 09:39:24;;;;;;;0.10;0.10;;;;;;;;;;5065832;28;20029;-60
2021/04/07 09:41:51;;;;;;;0.10;0.10;;;;;;;;;;5062768;28;20025;-61
2021/04/07 09:44:18;;;;;;;0.17;0.17;;;;;;;;;;5056805;28;20029;-61
2021/04/07 09:46:56;;;;;;;0.10;0.10;;;;;;;;;;5054023;28;20514;-61
2021/04/07 09:49:25;;;;;;;0.10;0.10;;;;;;;;;;5059580;28;20047;-61
2021/04/07 09:51:52;;;;;;;0.10;0.10;;;;;;;;;;5058757;28;20124;-61
2021/04/07 09:54:18;;;;;;;0.10;0.10;;;;;;;;;;5055830;28;20033;-61
2021/04/07 09:56:48;;;;;;;0.17;0.17;;;;;;;;;;5060610;28;20490;-61
2021/04/07 09:59:15;;;;;;;0.10;0.10;;;;;;;;;;5058574;28;20116;-60
2021/04/07 10:01:41;;;;;;;0.17;0.17;;;;;;;;;;5062466;28;20070;-60
2021/04/07 10:04:07;;;;;;;0.13;0.13;;;;;;;;;;5063862;28;20119;-60
2021/04/07 10:06:34;;;;;;;1.65;0.70;;;;;;;;;;5064281;28;20021;-60
2021/04/07 10:09:07;;;;;;;0.10;0.10;;;;;;;;;;5065623;28;20028;-59
2021/04/07 10:11:36;;;;;;;0.10;0.10;;;;;;;;;;5064085;28;20489;-60
2021/04/07 10:14:02;;;;;;;0.10;0.10;;;;;;;;;;5065420;28;20623;-61
2021/04/07 10:16:35;;;;;;;0.30;0.30;;;;;;;;;;5063071;28;20036;-60
2021/04/07 10:19:05;;;;;;;0.20;0.20;;;;;;;;;;5066073;28;20082;-61
2021/04/07 10:21:32;;;;;;;0.20;0.20;;;;;;;;;;5065638;28;20037;-61
2021/04/07 10:23:59;;;;;;;0.20;0.20;;;;;;;;;;5070571;28;20107;-62
2021/04/07 10:26:25;;;;;;;0.45;0.25;;;;;;;;;;5071725;28;20087;-63
2021/04/07 10:28:56;;;;;;;0.10;0.10;;;;;;;;;;5071673;28;20060;-61
2021/04/07 10:31:22;;;;;;;0.10;0.10;;;;;;;;;;5071308;28;20024;-60
2021/04/07 10:33:48;;;;;;;0.10;0.10;;;;;;;;;;5070543;28;20020;-60
2021/04/07 10:36:14;;;;;;;0.10;0.10;;;;;;;;;;5068960;28;20028;-61
2021/04/07 10:38:41;;;;;;;0.10;0.10;;;;;;;;;;5069909;28;20020;-61
2021/04/07 10:41:07;;;;;;;0.10;0.10;;;;;;;;;;5070330;28;20090;-62
2021/04/07 10:43:35;;;;;;;0.10;0.10;;;;;;;;;;5068727;28;20041;-60
2021/04/07 10:46:03;;;;;;;0.10;0.10;;;;;;;;;;5069541;28;20032;-60
2021/04/07 10:48:29;;;;;;;0.10;0.10;;;;;;;;;;5067184;28;20116;-62
2021/04/07 10:50:56;;;;;;;0.10;0.10;;;;;;;;;;5069571;28;20026;-60
2021/04/07 10:53:42;;;;;;;0.10;0.10;;;;;;;;;;5069639;28;20048;-60
2021/04/07 10:56:18;;;;;;;0.10;0.10;;;;;;;;;;5069807;28;20103;-61
2021/04/07 10:58:45;;;;;;;0.10;0.10;;;;;;;;;;5068320;28;20442;-61
2021/04/07 11:01:11;;;;;;;0.10;0.10;;;;;;;;;;5069806;28;20025;-61
2021/04/07 11:03:37;;;;;;;0.10;0.10;;;;;;;;;;5069797;28;20119;-60
2021/04/07 11:06:04;;;;;;;0.25;0.25;;;;;;;;;;5069635;28;20027;-61
2021/04/07 11:08:34;;;;;;;0.10;0.10;;;;;;;;;;5070097;28;20093;-60
2021/04/07 11:11:00;;;;;;;0.15;0.15;;;;;;;;;;5069776;28;20029;-60
2021/04/07 11:13:26;;;;;;;0.20;0.20;;;;;;;;;;5069018;28;20039;-61
2021/04/07 11:15:53;;;;;;;0.10;0.10;;;;;;;;;;5068944;28;20473;-60
2021/04/07 11:18:28;;;;;;;0.10;0.10;;;;;;;;;;5066760;28;20074;-62
2021/04/07 11:20:54;;;;;;;0.10;0.10;;;;;;;;;;5063835;28;20108;-61
2021/04/07 11:23:21;;;;;;;0.20;0.20;;;;;;;;;;5067490;28;20044;-60
2021/04/07 11:25:48;;;;;;;0.10;0.10;;;;;;;;;;5068426;28;20023;-61
2021/04/07 11:28:20;;;;;;;0.10;0.10;;;;;;;;;;5068525;28;20118;-61
2021/04/07 11:33:26;;;;;;;0.10;0.10;;;;;;;;;;5068263;28;20060;-61
2021/04/07 11:36:02;;;;;;;0.10;0.10;;;;;;;;;;5066998;28;20082;-60
2021/04/07 11:38:30;;;;;;;0.10;0.10;;;;;;;;;;5065731;28;20486;-61
2021/04/07 11:46:26;;;;;;;3.42;1.55;;;;;;;;;;5060559;28;20036;-60
2021/04/07 11:48:52;;;;;;;0.10;0.10;;;;;;;;;;5063198;28;20017;-60
2021/04/07 11:51:18;;;;;;;0.10;0.10;;;;;;;;;;5062132;28;20028;-60
2021/04/07 11:53:45;;;;;;;0.10;0.10;;;;;;;;;;5062456;28;20140;-60
2021/04/07 11:56:11;;;;;;;0.10;0.10;;;;;;;;;;5066105;28;20055;-60
2021/04/07 11:58:37;;;;;;;0.90;0.45;;;;;;;;;;5057375;28;20837;-60
2021/04/07 12:01:04;;;;;;;0.10;0.10;;;;;;;;;;5064349;28;20107;-60
2021/04/07 12:03:30;;;;;;;0.57;0.13;;;;;;;;;;5062796;28;20049;-59
2021/04/07 12:05:56;;;;;;;0.63;0.20;;;;;;;;;;5060118;28;20517;-60
2021/04/07 12:08:23;;;;;;;0.10;0.10;;;;;;;;;;5066772;28;20187;-60
2021/04/07 12:10:49;;;;;;;4.03;0.22;;;;;;;;;;5066947;28;20536;-59
2021/04/07 12:13:18;;;;;;;10.07;1.17;;;;;;;;;;5059367;28;20048;-60
2021/04/07 12:15:44;;;;;;;0.13;0.13;;;;;;;;;;5062624;28;20556;-59
2021/04/07 12:18:10;;;;;;;0.13;0.13;;;;;;;;;;5061339;28;20035;-61
2021/04/07 12:20:37;;;;;;;0.20;0.20;;;;;;;;;;5066535;28;20025;-60
2021/04/07 12:23:03;;;;;;;0.10;0.10;;;;;;;;;;5065200;28;20047;-60
2021/04/07 12:25:29;;;;;;;2.45;0.30;;;;;;;;;;5065738;28;20028;-59
2021/04/07 12:27:55;;;;;;;0.10;0.10;;;;;;;;;;5064268;28;20406;-58
2021/04/07 12:30:22;;;;;;;0.10;0.10;;;;;;;;;;5064245;28;20565;-56
2021/04/07 12:32:49;;;;;;;0.10;0.10;;;;;;;;;;5059967;28;20020;-57
2021/04/07 12:35:15;;;;;;;0.15;0.10;;;;;;;;;;5062568;28;20032;-63
2021/04/07 12:37:43;;;;;;;0.10;0.10;;;;;;;;;;5062727;28;20195;-70
2021/04/07 12:40:10;;;;;;;0.20;0.20;;;;;;;;;;5063505;28;20491;-70
2021/04/07 12:42:36;;;;;;;0.10;0.10;;;;;;;;;;5060185;28;20032;-70
2021/04/07 12:45:03;;;;;;;0.17;0.17;;;;;;;;;;5062440;28;20394;-73
2021/04/07 12:47:30;;;;;;;0.10;0.10;;;;;;;;;;5063746;28;20033;-65
2021/04/07 12:49:56;;;;;;;1.05;1.05;;;;;;;;;;5064898;28;20033;-74
2021/04/07 12:52:22;;;;;;;1.55;0.30;;;;;;;;;;5061202;28;20033;-63
2021/04/07 12:54:48;;;;;;;0.10;0.10;;;;;;;;;;5078854;28;20037;-79
2021/04/07 12:57:14;;;;;;;0.20;0.20;;;;;;;;;;5065588;28;20639;-74
2021/04/07 12:59:40;;;;;;;0.17;0.17;;;;;;;;;;5062644;28;20409;-70
2021/04/07 13:02:07;;;;;;;0.10;0.10;;;;;;;;;;5065373;28;20025;-69
2021/04/07 13:04:33;;;;;;;0.20;0.15;;;;;;;;;;5058130;28;20048;-65
2021/04/07 13:06:59;;;;;;;2.35;0.85;;;;;;;;;;5062867;28;20021;-63
2021/04/07 13:09:25;;;;;;;0.40;0.40;;;;;;;;;;5062011;28;20060;-60
2021/04/07 13:11:51;;;;;;;0.70;0.32;;;;;;;;;;5066398;28;20530;-61
2021/04/07 13:14:17;;;;;;;3.58;0.70;;;;;;;;;;5067449;28;20040;-63
2021/04/07 13:16:43;;;;;;;0.10;0.10;;;;;;;;;;5068338;28;20432;-62
2021/04/07 13:19:10;;;;;;;0.20;0.20;;;;;;;;;;5067081;28;20036;-60
2021/04/07 13:21:37;;;;;;;0.10;0.10;;;;;;;;;;5064059;28;20039;-70
2021/04/07 13:24:04;;;;;;;0.10;0.10;;;;;;;;;;5065897;28;20097;-60
2021/04/07 13:26:30;;;;;;;0.10;0.10;;;;;;;;;;5064862;28;20028;-60
2021/04/07 13:28:58;;;;;;;0.20;0.20;;;;;;;;;;5060624;28;20047;-60
2021/04/07 13:31:24;;;;;;;0.10;0.10;;;;;;;;;;5065188;28;20122;-60
2021/04/07 13:33:56;;;;;;;0.10;0.10;;;;;;;;;;5065527;28;20029;-60
2021/04/07 13:36:31;;;;;;;0.10;0.10;;;;;;;;;;5067863;28;20024;-60
2021/04/07 13:39:00;;;;;;;0.10;0.10;;;;;;;;;;5066335;28;20036;-60
2021/04/07 13:44:01;;;;;;;0.10;0.10;;;;;;;;;;5067071;28;20510;-60
2021/04/07 13:46:28;;;;;;;0.10;0.10;;;;;;;;;;5070009;28;20029;-60
2021/04/07 13:48:55;;;;;;;0.20;0.20;;;;;;;;;;5069620;28;20035;-60
2021/04/07 13:51:22;;;;;;;0.10;0.10;;;;;;;;;;5065009;28;20067;-59
2021/04/07 13:53:49;;;;;;;0.10;0.10;;;;;;;;;;5067555;28;20043;-59
2021/04/07 13:56:30;;;;;;;0.13;0.13;;;;;;;;;;5068020;28;20028;-59
2021/04/07 13:58:56;;;;;;;0.10;0.10;;;;;;;;;;5070006;28;20078;-59
2021/04/07 14:01:22;;;;;;;0.10;0.10;;;;;;;;;;5064488;28;20033;-60
2021/04/07 14:03:48;;;;;;;0.57;0.10;;;;;;;;;;5065036;28;20562;-58
2021/04/07 14:06:15;;;;;;;0.10;0.10;;;;;;;;;;5064470;28;20379;-58
2021/04/07 14:08:41;;;;;;;0.10;0.10;;;;;;;;;;5061886;28;20021;-59
2021/04/07 14:11:09;;;;;;;0.10;0.10;;;;;;;;;;5061517;28;20043;-58
2021/04/07 14:13:38;;;;;;;0.10;0.10;;;;;;;;;;5061795;28;20417;-60
2021/04/07 14:16:04;;;;;;;0.10;0.10;;;;;;;;;;5064750;28;20089;-59
2021/04/07 14:18:30;;;;;;;0.10;0.10;;;;;;;;;;5065594;28;20547;-59
2021/04/07 14:20:56;;;;;;;0.10;0.10;;;;;;;;;;5070575;28;20394;-59
2021/04/07 14:23:22;;;;;;;0.10;0.10;;;;;;;;;;5071686;28;20044;-59
2021/04/07 14:25:50;;;;;;;0.10;0.10;;;;;;;;;;5071404;28;20103;-59
2021/04/07 14:28:17;;;;;;;0.10;0.10;;;;;;;;;;5071214;28;20502;-58
2021/04/07 14:30:45;;;;;;;0.10;0.10;;;;;;;;;;5071741;28;20043;-59
2021/04/07 14:33:15;;;;;;;0.10;0.10;;;;;;;;;;5071461;28;20033;-59
2021/04/07 14:35:42;;;;;;;0.10;0.10;;;;;;;;;;5071010;28;20064;-58
2021/04/07 14:38:08;;;;;;;0.10;0.10;;;;;;;;;;5071624;28;20025;-59
2021/04/07 14:40:35;;;;;;;0.73;0.73;;;;;;;;;;5069798;28;20029;-60
2021/04/07 14:43:01;;;;;;;0.32;0.20;;;;;;;;;;5070148;28;20032;-59
2021/04/07 14:45:28;;;;;;;0.20;0.20;;;;;;;;;;5070346;28;20043;-60
2021/04/07 14:47:54;;;;;;;0.20;0.20;;;;;;;;;;5069161;28;20028;-60
2021/04/07 14:50:23;;;;;;;0.10;0.10;;;;;;;;;;5070991;28;20020;-60
2021/04/07 14:52:51;;;;;;;0.20;0.20;;;;;;;;;;5070388;28;20025;-60
2021/04/07 14:55:17;;;;;;;0.10;0.10;;;;;;;;;;5067184;28;20025;-60
2021/04/07 14:57:43;;;;;;;0.10;0.10;;;;;;;;;;5064945;28;20025;-59
2021/04/07 15:00:11;;;;;;;2.40;0.47;;;;;;;;;;5062607;28;20020;-59
2021/04/07 15:02:37;;;;;;;0.10;0.10;;;;;;;;;;5060683;28;20028;-59
2021/04/07 15:05:03;;;;;;;0.30;0.30;;;;;;;;;;5065665;28;20036;-59
2021/04/07 15:07:29;;;;;;;0.20;0.20;;;;;;;;;;5065713;28;20440;-60